createdAt,value
2023-03-21T00:00:39.829Z,99531.69
2023-03-21T00:03:44.881Z,99527.75
2023-03-21T00:06:49.217Z,99523.63
2023-03-21T00:10:01.877Z,99520.19
2023-03-21T00:13:09.269Z,99507.06
2023-03-21T00:16:24.289Z,99509.59
2023-03-21T00:19:38.794Z,99505.31
2023-03-21T00:22:43.417Z,99513.50
2023-03-21T00:25:47.416Z,99497.44
2023-03-21T00:28:51.812Z,99490.06
2023-03-21T00:31:59.077Z,99491.72
2023-03-21T00:35:31.582Z,99488.59
2023-03-21T00:38:27.104Z,99482.19
2023-03-21T00:41:42.008Z,99479.56
2023-03-21T00:44:46.977Z,99478.25
2023-03-21T00:47:52.547Z,99481.84
2023-03-21T00:50:59.709Z,99477.25
2023-03-21T00:54:05.866Z,99471.22
2023-03-21T00:57:09.730Z,99475.00
2023-03-21T01:00:18.278Z,99465.44
2023-03-21T01:03:26.990Z,99466.59
2023-03-21T01:06:31.395Z,99455.13
2023-03-21T01:09:35.325Z,99449.91
2023-03-21T01:12:39.235Z,99453.63
2023-03-21T01:15:45.913Z,99447.09
2023-03-21T01:18:51.368Z,99445.31
2023-03-21T01:21:55.459Z,99446.94
2023-03-21T01:25:12.113Z,99439.53
2023-03-21T01:28:23.494Z,99433.72
2023-03-21T01:31:29.650Z,99444.19
2023-03-21T01:34:35.017Z,99430.91
2023-03-21T01:37:39.188Z,99427.97
2023-03-21T01:40:47.612Z,99424.34
2023-03-21T01:44:01.953Z,99416.34
2023-03-21T01:47:18.121Z,99412.75
2023-03-21T01:50:32.608Z,99409.31
2023-03-21T01:53:50.791Z,99404.91
2023-03-21T01:56:58.272Z,99400.81
2023-03-21T02:00:12.493Z,99384.09
2023-03-21T02:03:38.806Z,99387.88
2023-03-21T02:07:11.487Z,99385.72
2023-03-21T02:10:21.032Z,99384.59
2023-03-21T02:13:29.072Z,99395.25
2023-03-21T02:16:48.026Z,99388.50
2023-03-21T02:20:32.656Z,99393.91
2023-03-21T02:24:26.767Z,99386.56
2023-03-21T02:27:33.673Z,99374.78
2023-03-21T02:30:52.335Z,99388.81
2023-03-21T02:34:33.913Z,99393.28
2023-03-21T02:37:46.769Z,99402.75
2023-03-21T02:41:10.112Z,99409.47
2023-03-21T02:44:22.806Z,99403.75
2023-03-21T02:47:31.915Z,99406.69
2023-03-21T02:50:39.912Z,99408.69
2023-03-21T02:53:53.284Z,99419.81
2023-03-21T02:57:03.946Z,99417.66
2023-03-21T03:00:16.581Z,99416.03
2023-03-21T03:03:33.483Z,99419.25
2023-03-21T03:06:51.269Z,99423.06
2023-03-21T03:10:13.914Z,99408.56
2023-03-21T03:13:33.847Z,99420.19
2023-03-21T03:16:45.908Z,99424.22
2023-03-21T03:20:15.897Z,99426.47
2023-03-21T03:23:29.690Z,99433.56
2023-03-21T03:26:38.246Z,99430.25
2023-03-21T03:29:46.481Z,99432.41
2023-03-21T03:33:00.378Z,99435.88
2023-03-21T03:36:07.109Z,99429.78
2023-03-21T03:39:16.138Z,99427.00
2023-03-21T03:42:33.225Z,99432.75
2023-03-21T03:45:49.103Z,99417.34
2023-03-21T03:48:58.522Z,99410.16
2023-03-21T03:52:10.979Z,99414.13
2023-03-21T03:55:23.081Z,99403.75
2023-03-21T03:58:44.555Z,99411.25
2023-03-21T04:01:51.936Z,99407.00
2023-03-21T04:04:58.097Z,99408.00
2023-03-21T04:08:02.560Z,99418.13
2023-03-21T04:11:16.667Z,99421.69
2023-03-21T04:14:35.668Z,99426.53
2023-03-21T04:17:43.002Z,99427.75
2023-03-21T04:20:48.940Z,99427.69
2023-03-21T04:23:55.093Z,99419.75
2023-03-21T04:31:00.434Z,99422.16
2023-03-21T04:34:10.226Z,99434.50
2023-03-21T04:37:17.151Z,99432.88
2023-03-21T04:40:21.995Z,99432.56
2023-03-21T04:43:26.226Z,99434.19
2023-03-21T04:46:31.642Z,99431.81
2023-03-21T04:49:35.897Z,99442.84
2023-03-21T04:52:40.019Z,99435.38
2023-03-21T04:55:44.088Z,99447.66
2023-03-21T04:58:47.920Z,99453.09
2023-03-21T05:01:57.168Z,99456.53
2023-03-21T05:05:01.247Z,99453.00
2023-03-21T05:08:05.768Z,99454.63
2023-03-21T05:11:09.699Z,99457.41
2023-03-21T05:14:17.122Z,99457.06
2023-03-21T05:17:25.330Z,99455.94
2023-03-21T05:20:29.265Z,99451.56
2023-03-21T05:23:38.528Z,99449.16
2023-03-21T05:26:43.628Z,99445.81
2023-03-21T05:29:53.596Z,99444.50
2023-03-21T05:32:59.254Z,99438.91
2023-03-21T05:36:04.229Z,99434.03
2023-03-21T05:39:09.655Z,99431.69
2023-03-21T05:42:18.856Z,99441.06
2023-03-21T05:45:23.693Z,99437.13
2023-03-21T05:48:30.064Z,99446.28
2023-03-21T05:51:54.409Z,99441.16
2023-03-21T05:54:58.700Z,99447.13
2023-03-21T05:58:04.400Z,99448.72
2023-03-21T06:01:09.647Z,99447.69
2023-03-21T06:04:18.617Z,99442.22
2023-03-21T06:07:22.736Z,99448.72
2023-03-21T06:10:27.581Z,99446.81
2023-03-21T06:13:33.317Z,99444.69
2023-03-21T06:16:37.818Z,99459.13
2023-03-21T06:19:43.526Z,99452.88
2023-03-21T06:22:54.039Z,99439.59
2023-03-21T06:25:58.146Z,99449.44
2023-03-21T06:29:03.994Z,99446.16
2023-03-21T06:32:09.206Z,99448.28
2023-03-21T06:35:15.230Z,99450.41
2023-03-21T06:38:20.191Z,99453.88
2023-03-21T06:41:24.910Z,99460.72
2023-03-21T06:44:41.073Z,99466.31
2023-03-21T06:47:50.057Z,99465.50
2023-03-21T06:51:09.579Z,99465.81
2023-03-21T06:54:19.295Z,99454.00
2023-03-21T06:57:34.437Z,99455.34
2023-03-21T07:00:38.887Z,99452.41
2023-03-21T07:03:43.116Z,99455.81
2023-03-21T07:06:49.048Z,99467.78
2023-03-21T07:09:54.719Z,99464.84
2023-03-21T07:13:00.720Z,99459.91
2023-03-21T07:16:13.541Z,99462.69
2023-03-21T07:19:17.607Z,99464.63
2023-03-21T07:22:23.388Z,99467.00
2023-03-21T07:25:27.620Z,99463.31
2023-03-21T07:28:32.732Z,99461.19
2023-03-21T07:31:37.042Z,99454.47
2023-03-21T07:34:42.331Z,99459.72
2023-03-21T07:37:48.953Z,99454.91
2023-03-21T07:40:54.667Z,99458.19
2023-03-21T07:43:59.669Z,99450.31
2023-03-21T07:47:10.304Z,99457.00
2023-03-21T07:50:15.047Z,99449.06
2023-03-21T07:53:20.704Z,99438.03
2023-03-21T07:56:24.858Z,99454.59
2023-03-21T07:59:29.150Z,99438.56
2023-03-21T08:02:33.254Z,99436.34
2023-03-21T08:05:39.284Z,99428.31
2023-03-21T08:08:45.009Z,99437.63
2023-03-21T08:11:49.097Z,99427.03
2023-03-21T08:14:53.235Z,99430.47
2023-03-21T08:17:57.642Z,99434.72
2023-03-21T08:21:02.024Z,99436.03
2023-03-21T08:24:08.799Z,99433.25
2023-03-21T08:27:12.961Z,99435.22
2023-03-21T08:30:20.309Z,99436.25
2023-03-21T08:33:24.493Z,99430.19
2023-03-21T08:36:28.830Z,99434.91
2023-03-21T08:39:34.385Z,99429.28
2023-03-21T08:42:38.870Z,99425.75
2023-03-21T08:45:43.034Z,99422.00
2023-03-21T08:48:47.239Z,99426.88
2023-03-21T08:51:51.849Z,99425.72
2023-03-21T08:54:57.409Z,99418.91
2023-03-21T08:58:02.342Z,99418.81
2023-03-21T09:01:07.379Z,99423.41
2023-03-21T09:04:12.213Z,99424.47
2023-03-21T09:07:17.521Z,99420.31
2023-03-21T09:10:24.958Z,99412.66
2023-03-21T09:13:29.107Z,99418.91
2023-03-21T09:16:33.984Z,99417.28
2023-03-21T09:19:39.180Z,99416.41
2023-03-21T09:22:43.432Z,99399.66
2023-03-21T09:25:48.968Z,99404.44
2023-03-21T09:28:53.489Z,99405.44
2023-03-21T09:31:58.057Z,99404.50
2023-03-21T09:35:02.567Z,99398.13
2023-03-21T09:38:06.769Z,99399.00
2023-03-21T09:41:34.267Z,99402.19
2023-03-21T09:44:53.197Z,99397.16
2023-03-21T09:47:58.615Z,99394.66
2023-03-21T09:51:05.129Z,99392.53
2023-03-21T09:54:15.283Z,99385.81
2023-03-21T09:57:31.812Z,99385.41
2023-03-21T10:00:40.593Z,99388.13
2023-03-21T10:03:45.190Z,99382.09
2023-03-21T10:06:57.400Z,99375.31
2023-03-21T10:10:04.876Z,99370.44
2023-03-21T10:13:17.679Z,99374.66
2023-03-21T10:16:28.242Z,99376.72
2023-03-21T10:19:32.406Z,99367.97
2023-03-21T10:22:36.702Z,99368.38
2023-03-21T10:25:47.166Z,99367.22
2023-03-21T10:28:53.798Z,99367.38
2023-03-21T10:31:58.898Z,99367.16
2023-03-21T10:35:05.269Z,99359.72
2023-03-21T10:38:17.215Z,99349.53
2023-03-21T10:41:21.712Z,99347.91
2023-03-21T10:44:32.213Z,99344.25
2023-03-21T10:47:37.801Z,99346.25
2023-03-21T10:50:42.700Z,99330.81
2023-03-21T10:53:52.247Z,99315.97
2023-03-21T10:56:59.705Z,99317.34
2023-03-21T11:00:15.324Z,99314.09
2023-03-21T11:03:24.635Z,99310.25
2023-03-21T11:06:34.219Z,99304.75
2023-03-21T11:09:52.488Z,99307.97
2023-03-21T11:12:59.794Z,99290.50
2023-03-21T11:16:10.246Z,99281.97
2023-03-21T11:19:17.361Z,99269.28
2023-03-21T11:22:24.594Z,99256.03
2023-03-21T11:25:37.672Z,99261.44
2023-03-21T11:28:45.272Z,99261.84
2023-03-21T11:31:51.245Z,99264.28
2023-03-21T11:35:00.472Z,99258.78
2023-03-21T11:38:05.543Z,99254.75
2023-03-21T11:41:09.955Z,99252.09
2023-03-21T11:44:31.714Z,99243.53
2023-03-21T11:47:37.298Z,99244.53
2023-03-21T11:50:44.920Z,99230.28
2023-03-21T11:53:53.122Z,99225.84
2023-03-21T11:57:05.588Z,99231.50
2023-03-21T12:00:18.670Z,99227.47
2023-03-21T12:03:48.352Z,99231.75
2023-03-21T12:06:58.038Z,99221.97
2023-03-21T12:10:18.799Z,99219.13
2023-03-21T12:13:34.907Z,99211.13
2023-03-21T12:16:49.997Z,99206.50
2023-03-21T12:20:11.493Z,99202.13
2023-03-21T12:23:33.828Z,99192.91
2023-03-21T12:26:43.817Z,99193.81
2023-03-21T12:30:09.703Z,99196.31
2023-03-21T12:33:34.720Z,99185.94
2023-03-21T12:36:59.298Z,99186.38
2023-03-21T12:40:13.693Z,99167.88
2023-03-21T12:43:31.007Z,99162.63
2023-03-21T12:46:41.154Z,99166.50
2023-03-21T12:49:55.086Z,99167.50
2023-03-21T12:53:09.356Z,99157.06
2023-03-21T12:56:18.624Z,99158.97
2023-03-21T12:59:32.913Z,99176.88
2023-03-21T13:02:42.152Z,99166.09
2023-03-21T13:05:50.058Z,99162.44
2023-03-21T13:09:01.652Z,99160.41
2023-03-21T13:12:17.873Z,99158.59
2023-03-21T13:15:40.734Z,99149.22
2023-03-21T13:18:56.692Z,99149.63
2023-03-21T13:22:08.902Z,99154.53
2023-03-21T13:25:20.950Z,99151.06
2023-03-21T13:28:29.280Z,99147.41
2023-03-21T13:31:45.364Z,99143.53
2023-03-21T13:34:59.655Z,99135.19
2023-03-21T13:38:06.756Z,99127.66
2023-03-21T13:41:17.209Z,99125.88
2023-03-21T13:44:26.140Z,99114.25
2023-03-21T13:47:41.688Z,99115.09
2023-03-21T13:51:01.662Z,99111.44
2023-03-21T13:54:17.990Z,99112.84
2023-03-21T13:57:39.719Z,99106.56
2023-03-21T14:00:43.877Z,99100.44
2023-03-21T14:03:48.495Z,99103.94
2023-03-21T14:06:57.657Z,99086.03
2023-03-21T14:10:06.155Z,99088.88
2023-03-21T14:13:17.265Z,99092.13
2023-03-21T14:16:22.969Z,99094.53
2023-03-21T14:19:32.627Z,99099.81
2023-03-21T14:22:36.712Z,99101.44
2023-03-21T14:25:47.554Z,99099.44
2023-03-21T14:28:54.413Z,99102.69
2023-03-21T14:32:00.519Z,99091.91
2023-03-21T14:35:05.402Z,99089.25
2023-03-21T14:38:11.103Z,99084.19
2023-03-21T14:41:24.185Z,99079.72
2023-03-21T14:44:47.379Z,99081.75
2023-03-21T14:48:00.367Z,99094.94
2023-03-21T14:51:06.614Z,99075.66
2023-03-21T14:54:17.919Z,99084.19
2023-03-21T14:57:25.325Z,99080.50
2023-03-21T15:00:32.996Z,99072.34
2023-03-21T15:03:37.978Z,99063.25
2023-03-21T15:06:55.745Z,99072.41
2023-03-21T15:10:04.020Z,99078.28
2023-03-21T15:13:17.766Z,99093.69
2023-03-21T15:16:24.741Z,99098.41
2023-03-21T15:19:35.121Z,99104.91
2023-03-21T15:22:42.490Z,99084.19
2023-03-21T15:25:47.389Z,99078.69
2023-03-21T15:28:56.735Z,99084.78
2023-03-21T15:32:06.811Z,99096.75
2023-03-21T15:35:18.175Z,99098.59
2023-03-21T15:38:26.052Z,99093.53
2023-03-21T15:41:32.544Z,99095.94
2023-03-21T15:44:37.524Z,99109.72
2023-03-21T15:47:45.220Z,99105.31
2023-03-21T15:50:53.908Z,99109.13
2023-03-21T15:53:58.141Z,99095.94
2023-03-21T15:57:04.886Z,99099.97
2023-03-21T16:00:22.999Z,99093.47
2023-03-21T16:03:32.646Z,99087.97
2023-03-21T16:06:38.440Z,99089.34
2023-03-21T16:09:45.085Z,99094.81
2023-03-21T16:12:49.116Z,99097.25
2023-03-21T16:15:53.566Z,99100.09
2023-03-21T16:19:00.767Z,99103.38
2023-03-21T16:22:10.586Z,99106.97
2023-03-21T16:25:14.751Z,99102.91
2023-03-21T16:28:19.423Z,99102.50
2023-03-21T16:31:25.909Z,99114.25
2023-03-21T16:34:32.572Z,99117.91
2023-03-21T16:37:36.745Z,99106.97
2023-03-21T16:40:44.093Z,99107.38
2023-03-21T16:43:48.406Z,99097.66
2023-03-21T16:46:52.557Z,99109.78
2023-03-21T16:49:58.293Z,99102.59
2023-03-21T16:53:03.404Z,99099.13
2023-03-21T16:56:10.378Z,99094.06
2023-03-21T16:59:16.188Z,99095.75
2023-03-21T17:02:20.256Z,99096.34
2023-03-21T17:05:27.103Z,99093.09
2023-03-21T17:08:31.798Z,99092.28
2023-03-21T17:11:37.808Z,99094.78
2023-03-21T17:14:42.272Z,99103.66
2023-03-21T17:17:46.822Z,99109.94
2023-03-21T17:20:52.459Z,99110.53
2023-03-21T17:23:57.117Z,99113.78
2023-03-21T17:27:02.782Z,99110.94
2023-03-21T17:30:19.085Z,99105.22
2023-03-21T17:33:23.176Z,99099.13
2023-03-21T17:36:32.081Z,99111.28
2023-03-21T17:39:36.138Z,99109.00
2023-03-21T17:42:41.289Z,99118.47
2023-03-21T17:45:45.388Z,99105.50
2023-03-21T17:48:50.124Z,99102.28
2023-03-21T17:51:56.074Z,99099.59
2023-03-21T17:55:00.237Z,99099.16
2023-03-21T17:58:05.827Z,99107.25
2023-03-21T18:01:09.921Z,99104.38
2023-03-21T18:04:14.014Z,99112.44
2023-03-21T18:07:29.696Z,99109.00
2023-03-21T18:10:44.311Z,99105.88
2023-03-21T18:13:48.963Z,99111.78
2023-03-21T18:16:54.506Z,99109.53
2023-03-21T18:19:59.914Z,99118.88
2023-03-21T18:23:06.430Z,99131.69
2023-03-21T18:26:11.869Z,99128.69
2023-03-21T18:32:44.235Z,99141.38
2023-03-21T18:35:48.547Z,99143.22
2023-03-21T18:38:55.783Z,99145.38
2023-03-21T18:42:02.630Z,99144.34
2023-03-21T18:45:10.994Z,99139.63
2023-03-21T18:48:15.195Z,99149.59
2023-03-21T18:51:19.808Z,99155.16
2023-03-21T18:54:25.439Z,99153.00
2023-03-21T18:57:37.062Z,99156.28
2023-03-21T19:00:42.999Z,99157.31
2023-03-21T19:04:14.575Z,99150.19
2023-03-21T19:07:11.620Z,99161.91
2023-03-21T19:10:19.860Z,99165.56
2023-03-21T19:13:24.405Z,99172.19
2023-03-21T19:16:32.723Z,99167.38
2023-03-21T19:19:43.928Z,99170.69
2023-03-21T19:22:48.285Z,99165.16
2023-03-21T19:25:53.896Z,99155.84
2023-03-21T19:28:57.896Z,99152.16
2023-03-21T19:32:02.137Z,99165.19
2023-03-21T19:35:07.769Z,99167.09
2023-03-21T19:38:13.035Z,99169.66
2023-03-21T19:41:18.861Z,99186.78
2023-03-21T19:44:22.902Z,99182.59
2023-03-21T19:47:27.484Z,99196.84
2023-03-21T19:53:55.931Z,99202.03
2023-03-21T19:57:01.545Z,99206.47
2023-03-21T20:00:10.906Z,99199.41
2023-03-21T20:03:15.447Z,99190.78
2023-03-21T20:06:19.597Z,99196.47
2023-03-21T20:09:49.538Z,99199.63
2023-03-21T20:12:50.024Z,99192.56
2023-03-21T20:15:55.525Z,99184.84
2023-03-21T20:19:00.750Z,99191.03
2023-03-21T20:22:21.820Z,99198.66
2023-03-21T20:25:33.637Z,99202.19
2023-03-21T20:28:39.532Z,99200.09
2023-03-21T20:31:43.572Z,99195.94
2023-03-21T20:34:48.460Z,99192.94
2023-03-21T20:37:53.328Z,99194.94
2023-03-21T20:40:57.479Z,99194.59
2023-03-21T20:47:28.054Z,99189.88
2023-03-21T20:50:33.204Z,99191.97
2023-03-21T20:53:37.842Z,99187.97
2023-03-21T20:56:42.026Z,99194.59
2023-03-21T20:59:48.000Z,99187.31
2023-03-21T21:02:52.526Z,99182.97
2023-03-21T21:05:56.669Z,99193.47
2023-03-21T21:09:00.802Z,99195.06
2023-03-21T21:12:07.645Z,99203.50
2023-03-21T21:15:17.045Z,99204.44
2023-03-21T21:18:21.457Z,99204.06
2023-03-21T21:21:25.762Z,99202.19
2023-03-21T21:24:31.630Z,99208.03
2023-03-21T21:27:35.738Z,99209.31
2023-03-21T21:30:43.293Z,99219.59
2023-03-21T21:33:50.364Z,99218.59
2023-03-21T21:36:55.564Z,99210.47
2023-03-21T21:39:59.607Z,99212.47
2023-03-21T21:43:04.394Z,99205.34
2023-03-21T21:46:10.274Z,99201.69
2023-03-21T21:49:14.510Z,99197.22
2023-03-21T21:52:24.448Z,99200.09
2023-03-21T21:55:28.487Z,99201.44
2023-03-21T21:58:34.117Z,99205.41
2023-03-21T22:01:42.691Z,99204.66
2023-03-21T22:04:46.981Z,99201.41
2023-03-21T22:07:53.534Z,99202.44
2023-03-21T22:10:58.204Z,99207.16
2023-03-21T22:14:02.470Z,99204.56
2023-03-21T22:17:08.027Z,99205.69
2023-03-21T22:20:15.899Z,99202.34
2023-03-21T22:23:19.963Z,99203.66
2023-03-21T22:26:24.457Z,99194.88
2023-03-21T22:29:29.582Z,99192.59
2023-03-21T22:32:35.950Z,99192.44
2023-03-21T22:35:39.977Z,99197.84
2023-03-21T22:38:44.326Z,99200.94
2023-03-21T22:41:48.395Z,99202.31
2023-03-21T22:44:52.450Z,99199.53
2023-03-21T22:48:00.314Z,99202.22
2023-03-21T22:51:04.726Z,99205.28
2023-03-21T22:54:08.879Z,99203.13
2023-03-21T22:57:13.994Z,99206.41
2023-03-21T23:00:20.321Z,99204.03
2023-03-21T23:03:25.892Z,99215.28
2023-03-21T23:06:29.810Z,99213.78
2023-03-21T23:09:34.164Z,99223.63
2023-03-21T23:12:38.818Z,99214.84
2023-03-21T23:15:43.378Z,99218.38
2023-03-21T23:18:49.120Z,99222.47
2023-03-21T23:21:53.288Z,99213.59
2023-03-21T23:24:57.350Z,99211.66
2023-03-21T23:28:02.412Z,99207.25
2023-03-21T23:31:10.975Z,99206.44
2023-03-21T23:34:16.740Z,99206.03
2023-03-21T23:37:21.615Z,99199.66
2023-03-21T23:40:25.561Z,99201.41
2023-03-21T23:43:29.954Z,99197.69
2023-03-21T23:46:34.164Z,99194.13
2023-03-21T23:49:41.125Z,99194.06
2023-03-21T23:52:45.279Z,99193.59
2023-03-21T23:55:52.197Z,99190.50
2023-03-21T23:58:56.235Z,99194.13
